Time;durP1;ratioP1;P1;durP2;ratioP2;P2;SDS_P1;SDS_P2;PMS_P1;PMS_P2;Temp;Humidity;BMP_temperature;BMP_pressure;BME280_temperature;BME280_humidity;BME280_pressure;Samples;Min_cycle;Max_cycle;Signal;HPM_P1;HPM_P2
2022/01/03 00:01:58;;;;;;;7.75;1.77;;;;;;;;;;5073202;28;20471;-71
2022/01/03 00:04:24;;;;;;;10.52;2.08;;;;;;;;;;5073113;28;20029;-72
2022/01/03 00:06:50;;;;;;;11.48;2.70;;;;;;;;;;5073132;28;20383;-73
2022/01/03 00:09:16;;;;;;;7.50;1.88;;;;;;;;;;5074375;28;20542;-72
2022/01/03 00:11:42;;;;;;;9.88;2.40;;;;;;;;;;5074491;28;20021;-71
2022/01/03 00:14:08;;;;;;;8.73;2.03;;;;;;;;;;5074263;28;20028;-71
2022/01/03 00:16:34;;;;;;;11.90;2.45;;;;;;;;;;5073076;28;20020;-72
2022/01/03 00:19:00;;;;;;;20.58;2.33;;;;;;;;;;5074197;28;20129;-70
2022/01/03 00:21:29;;;;;;;15.65;2.60;;;;;;;;;;5073040;28;20017;-71
2022/01/03 00:24:06;;;;;;;8.02;2.30;;;;;;;;;;5074144;28;20128;-72
2022/01/03 00:26:34;;;;;;;9.52;2.35;;;;;;;;;;5074047;28;20039;-70
2022/01/03 00:29:20;;;;;;;7.05;2.35;;;;;;;;;;5086823;28;20085;-71
2022/01/03 00:31:46;;;;;;;9.43;2.30;;;;;;;;;;5073761;28;20038;-72
2022/01/03 00:34:15;;;;;;;9.45;2.13;;;;;;;;;;5073790;28;20447;-71
2022/01/03 00:36:44;;;;;;;9.30;2.58;;;;;;;;;;5073777;28;20029;-71
2022/01/03 00:39:10;;;;;;;9.07;2.00;;;;;;;;;;5073966;28;20024;-72
2022/01/03 00:41:40;;;;;;;10.40;3.03;;;;;;;;;;5073772;28;20024;-70
2022/01/03 00:44:06;;;;;;;7.60;2.15;;;;;;;;;;5055696;28;20028;-71
2022/01/03 00:46:33;;;;;;;10.93;2.60;;;;;;;;;;5055708;28;20361;-72
2022/01/03 00:49:03;;;;;;;17.33;2.50;;;;;;;;;;5073503;28;20052;-72
2022/01/03 00:51:29;;;;;;;11.70;2.17;;;;;;;;;;5073522;28;20028;-72
2022/01/03 00:53:55;;;;;;;11.02;2.72;;;;;;;;;;5073600;28;20027;-72
2022/01/03 00:56:28;;;;;;;14.57;2.70;;;;;;;;;;5073678;28;20097;-73
2022/01/03 00:59:10;;;;;;;11.70;2.90;;;;;;;;;;5055675;28;20513;-73
2022/01/03 01:01:49;;;;;;;14.38;2.63;;;;;;;;;;5073428;28;20078;-70
2022/01/03 01:04:16;;;;;;;14.05;2.38;;;;;;;;;;5073326;28;20025;-69
2022/01/03 01:06:42;;;;;;;11.93;2.67;;;;;;;;;;5055315;28;20464;-70
2022/01/03 01:09:11;;;;;;;6.30;1.80;;;;;;;;;;5073319;28;20090;-71
2022/01/03 01:11:40;;;;;;;17.15;2.88;;;;;;;;;;5055420;28;20028;-72
2022/01/03 01:14:06;;;;;;;13.35;2.88;;;;;;;;;;5055110;28;20429;-71
2022/01/03 01:16:32;;;;;;;11.68;3.00;;;;;;;;;;5072838;28;20456;-71
2022/01/03 01:18:58;;;;;;;14.40;3.15;;;;;;;;;;5073296;28;20032;-71
2022/01/03 01:21:25;;;;;;;9.73;2.53;;;;;;;;;;5055264;28;20028;-71
2022/01/03 01:23:52;;;;;;;9.15;2.22;;;;;;;;;;5072952;28;20024;-72
2022/01/03 01:29:04;;;;;;;9.50;2.58;;;;;;;;;;5072778;28;20071;-72
2022/01/03 01:31:31;;;;;;;6.35;2.20;;;;;;;;;;5072978;28;20032;-72
2022/01/03 01:33:58;;;;;;;10.80;2.40;;;;;;;;;;5054911;28;20150;-72
2022/01/03 01:36:26;;;;;;;12.30;2.20;;;;;;;;;;5073203;28;20032;-71
2022/01/03 01:38:55;;;;;;;14.60;2.97;;;;;;;;;;5073083;28;20021;-71
2022/01/03 01:41:22;;;;;;;16.38;3.28;;;;;;;;;;5073044;28;20034;-72
2022/01/03 01:43:48;;;;;;;7.88;2.35;;;;;;;;;;5072703;28;20017;-72
2022/01/03 01:46:16;;;;;;;13.30;2.45;;;;;;;;;;5055046;28;20025;-72
2022/01/03 01:48:44;;;;;;;9.57;2.83;;;;;;;;;;5072733;28;20052;-72
2022/01/03 01:51:10;;;;;;;10.88;2.47;;;;;;;;;;5072848;28;20025;-72
2022/01/03 01:53:41;;;;;;;12.50;2.60;;;;;;;;;;5072775;28;20047;-71
2022/01/03 01:56:14;;;;;;;11.00;2.72;;;;;;;;;;5072612;28;20035;-72
2022/01/03 01:58:50;;;;;;;11.85;2.58;;;;;;;;;;5072898;28;20025;-71
2022/01/03 02:01:20;;;;;;;10.93;2.63;;;;;;;;;;5072703;28;20032;-72
2022/01/03 02:04:02;;;;;;;12.55;3.00;;;;;;;;;;5054771;28;20024;-72
2022/01/03 02:06:40;;;;;;;13.77;2.60;;;;;;;;;;5072698;28;20024;-71
2022/01/03 02:09:07;;;;;;;10.40;2.08;;;;;;;;;;5072486;28;20029;-68
2022/01/03 02:11:47;;;;;;;11.20;2.85;;;;;;;;;;5072421;28;20388;-71
2022/01/03 02:14:13;;;;;;;9.13;2.72;;;;;;;;;;5054645;28;20040;-71
2022/01/03 02:16:39;;;;;;;10.90;2.65;;;;;;;;;;5054582;28;20020;-70
2022/01/03 02:19:05;;;;;;;15.38;2.53;;;;;;;;;;5072506;28;20402;-70
2022/01/03 02:21:31;;;;;;;11.85;2.88;;;;;;;;;;5072587;28;20028;-69
2022/01/03 02:23:57;;;;;;;10.55;2.95;;;;;;;;;;5072556;28;20028;-72
2022/01/03 02:26:23;;;;;;;12.27;2.53;;;;;;;;;;5072529;28;20083;-72
2022/01/03 02:28:50;;;;;;;11.40;2.97;;;;;;;;;;5057952;28;20411;-71
2022/01/03 02:31:17;;;;;;;8.95;2.50;;;;;;;;;;5076339;28;20020;-71
2022/01/03 02:33:44;;;;;;;10.95;2.65;;;;;;;;;;5076326;28;20575;-72
2022/01/03 02:36:10;;;;;;;9.48;2.38;;;;;;;;;;5076057;28;20085;-71
2022/01/03 02:38:36;;;;;;;14.15;3.08;;;;;;;;;;5076324;28;20036;-71
2022/01/03 02:41:02;;;;;;;12.68;3.13;;;;;;;;;;5058047;28;20024;-71
2022/01/03 02:43:28;;;;;;;14.13;2.83;;;;;;;;;;5076173;28;20051;-71
2022/01/03 02:45:54;;;;;;;13.88;2.47;;;;;;;;;;5075849;28;20360;-70
2022/01/03 02:48:22;;;;;;;12.13;3.05;;;;;;;;;;5075737;28;20067;-71
2022/01/03 02:50:48;;;;;;;10.80;2.65;;;;;;;;;;5057869;28;20028;-71
2022/01/03 02:53:14;;;;;;;18.10;3.15;;;;;;;;;;5075793;28;20028;-69
2022/01/03 02:55:40;;;;;;;10.90;2.50;;;;;;;;;;5057932;28;20373;-72
2022/01/03 02:58:07;;;;;;;13.98;2.85;;;;;;;;;;5058834;28;20498;-71
2022/01/03 03:00:34;;;;;;;11.20;2.70;;;;;;;;;;5095892;28;20020;-71
2022/01/03 03:02:59;;;;;;;15.32;3.25;;;;;;;;;;5077675;28;20474;-69
2022/01/03 03:05:26;;;;;;;15.82;3.15;;;;;;;;;;5096334;28;20074;-72
2022/01/03 03:07:53;;;;;;;15.25;3.13;;;;;;;;;;5095929;28;20048;-72
2022/01/03 03:10:21;;;;;;;16.80;3.28;;;;;;;;;;5095719;28;20497;-69
2022/01/03 03:12:47;;;;;;;12.40;3.03;;;;;;;;;;5095607;28;20034;-71
2022/01/03 03:15:14;;;;;;;18.60;3.58;;;;;;;;;;5095716;28;20089;-71
2022/01/03 03:17:41;;;;;;;33.88;3.97;;;;;;;;;;5077467;28;20024;-72
2022/01/03 03:20:18;;;;;;;21.42;3.53;;;;;;;;;;5077776;28;20020;-71
2022/01/03 03:22:44;;;;;;;18.45;3.38;;;;;;;;;;5095494;28;20082;-68
2022/01/03 03:25:12;;;;;;;23.27;3.35;;;;;;;;;;5095544;28;20024;-71
2022/01/03 03:27:47;;;;;;;20.00;3.28;;;;;;;;;;5095484;28;20020;-71
2022/01/03 03:30:14;;;;;;;14.63;2.83;;;;;;;;;;5095522;28;20028;-71
2022/01/03 03:32:41;;;;;;;10.23;2.67;;;;;;;;;;5095434;28;20020;-71
2022/01/03 03:35:07;;;;;;;19.85;3.15;;;;;;;;;;5095216;28;20531;-69
2022/01/03 03:37:33;;;;;;;10.65;2.63;;;;;;;;;;5094940;28;20020;-71
2022/01/03 03:39:59;;;;;;;13.18;2.72;;;;;;;;;;5084371;28;20047;-72
2022/01/03 03:42:25;;;;;;;11.75;2.70;;;;;;;;;;5075036;28;20031;-71
2022/01/03 03:44:51;;;;;;;12.13;2.90;;;;;;;;;;5056828;28;20029;-70
2022/01/03 03:47:17;;;;;;;21.60;3.80;;;;;;;;;;5075017;28;20024;-71
2022/01/03 03:49:43;;;;;;;14.85;2.97;;;;;;;;;;5074763;28;20047;-71
2022/01/03 03:52:09;;;;;;;18.63;3.22;;;;;;;;;;5074574;28;20426;-70
2022/01/03 03:54:35;;;;;;;12.65;2.92;;;;;;;;;;5074817;28;20104;-71
2022/01/03 03:57:02;;;;;;;15.25;3.65;;;;;;;;;;5056818;28;20048;-71
2022/01/03 03:59:28;;;;;;;15.32;2.90;;;;;;;;;;5074455;28;20025;-71
2022/01/03 04:01:55;;;;;;;10.80;2.97;;;;;;;;;;5056531;28;20035;-70
2022/01/03 04:04:21;;;;;;;13.68;3.03;;;;;;;;;;5074451;28;20026;-72
2022/01/03 04:06:47;;;;;;;10.85;3.53;;;;;;;;;;5074484;28;20031;-71
2022/01/03 04:09:13;;;;;;;17.10;4.05;;;;;;;;;;5074490;28;20503;-71
2022/01/03 04:11:39;;;;;;;12.00;3.05;;;;;;;;;;5056333;28;20502;-70
2022/01/03 04:14:05;;;;;;;15.32;3.22;;;;;;;;;;5056379;28;20025;-71
2022/01/03 04:16:32;;;;;;;11.48;3.05;;;;;;;;;;5074323;28;20025;-71
2022/01/03 04:18:58;;;;;;;12.20;3.05;;;;;;;;;;5056337;28;20092;-70
2022/01/03 04:21:25;;;;;;;12.43;3.15;;;;;;;;;;5074007;28;20100;-71
2022/01/03 04:23:51;;;;;;;12.15;3.10;;;;;;;;;;5074134;28;20361;-71
2022/01/03 04:26:17;;;;;;;13.00;3.28;;;;;;;;;;5074190;28;20028;-71
2022/01/03 04:28:44;;;;;;;14.23;3.33;;;;;;;;;;5073698;28;20128;-71
2022/01/03 04:31:10;;;;;;;15.30;3.63;;;;;;;;;;5074151;28;20020;-71
2022/01/03 04:33:36;;;;;;;13.70;3.28;;;;;;;;;;5055873;28;20021;-70
2022/01/03 04:36:03;;;;;;;12.95;3.67;;;;;;;;;;5056089;28;20031;-71
2022/01/03 04:38:29;;;;;;;20.52;3.53;;;;;;;;;;5073744;28;20035;-71
2022/01/03 04:40:55;;;;;;;11.30;3.10;;;;;;;;;;5073947;28;20021;-72
2022/01/03 04:43:21;;;;;;;19.23;4.25;;;;;;;;;;5055590;28;20103;-72
2022/01/03 04:45:47;;;;;;;16.13;3.33;;;;;;;;;;5055845;28;20457;-69
2022/01/03 04:48:13;;;;;;;13.98;3.60;;;;;;;;;;5073576;28;20036;-72
2022/01/03 04:50:39;;;;;;;11.02;2.85;;;;;;;;;;5072777;28;20060;-72
2022/01/03 04:53:05;;;;;;;14.52;3.15;;;;;;;;;;5073418;28;20044;-72
2022/01/03 04:55:31;;;;;;;12.55;3.20;;;;;;;;;;5073309;28;20475;-71
2022/01/03 04:57:56;;;;;;;13.68;2.65;;;;;;;;;;5073277;28;20099;-72
2022/01/03 05:00:22;;;;;;;11.13;3.05;;;;;;;;;;5073383;28;20082;-72
2022/01/03 05:02:48;;;;;;;17.23;3.42;;;;;;;;;;5073321;28;20043;-71
2022/01/03 05:05:15;;;;;;;12.65;3.28;;;;;;;;;;5073180;28;20025;-71
2022/01/03 05:07:40;;;;;;;18.35;3.78;;;;;;;;;;5073454;28;20055;-71
2022/01/03 05:10:07;;;;;;;12.80;3.30;;;;;;;;;;5073425;28;20071;-72
2022/01/03 05:12:33;;;;;;;14.80;3.85;;;;;;;;;;5055436;28;20019;-72
2022/01/03 05:14:59;;;;;;;19.58;3.80;;;;;;;;;;5073300;28;20028;-69
2022/01/03 05:17:25;;;;;;;22.33;4.68;;;;;;;;;;5073289;28;20028;-74
2022/01/03 05:19:51;;;;;;;22.92;3.78;;;;;;;;;;5073053;28;20032;-73
2022/01/03 05:22:17;;;;;;;22.80;4.18;;;;;;;;;;5073341;28;20032;-72
2022/01/03 05:24:43;;;;;;;20.30;4.03;;;;;;;;;;5073295;28;20027;-72
2022/01/03 05:27:09;;;;;;;28.52;4.15;;;;;;;;;;5055252;28;20399;-71
2022/01/03 05:29:35;;;;;;;23.30;4.00;;;;;;;;;;5072823;28;20044;-68
2022/01/03 05:32:01;;;;;;;29.30;4.32;;;;;;;;;;5055256;28;20487;-72
2022/01/03 05:34:27;;;;;;;18.40;4.03;;;;;;;;;;5073174;28;20079;-73
2022/01/03 05:36:53;;;;;;;21.13;4.22;;;;;;;;;;5072872;28;20434;-72
2022/01/03 05:39:19;;;;;;;19.83;3.45;;;;;;;;;;5073083;28;20024;-69
2022/01/03 05:41:45;;;;;;;28.45;3.70;;;;;;;;;;5055131;28;20494;-72
2022/01/03 05:44:11;;;;;;;15.30;3.50;;;;;;;;;;5054979;28;20059;-72
2022/01/03 05:46:37;;;;;;;22.00;4.22;;;;;;;;;;5056954;28;20470;-71
2022/01/03 05:49:06;;;;;;;24.15;4.10;;;;;;;;;;5054633;28;20031;-70
2022/01/03 05:51:32;;;;;;;20.08;3.58;;;;;;;;;;5072903;28;20078;-71
2022/01/03 05:53:58;;;;;;;19.45;4.07;;;;;;;;;;5072753;28;20032;-70
2022/01/03 05:56:24;;;;;;;18.58;4.05;;;;;;;;;;5072896;28;20025;-71
2022/01/03 05:58:51;;;;;;;14.23;3.60;;;;;;;;;;5059555;28;20079;-71
2022/01/03 06:01:19;;;;;;;14.93;3.90;;;;;;;;;;5074154;28;20029;-70
2022/01/03 06:03:45;;;;;;;19.23;4.05;;;;;;;;;;5076938;28;20410;-70
2022/01/03 06:08:37;;;;;;;15.98;3.97;;;;;;;;;;5076766;28;20436;-70
2022/01/03 06:11:03;;;;;;;15.30;3.97;;;;;;;;;;5076630;28;20099;-69
2022/01/03 06:13:29;;;;;;;22.25;4.20;;;;;;;;;;5076507;28;20024;-69
2022/01/03 06:15:56;;;;;;;16.98;3.78;;;;;;;;;;5058627;28;20027;-69
2022/01/03 06:18:22;;;;;;;19.77;4.80;;;;;;;;;;5076737;28;20031;-67
2022/01/03 06:20:49;;;;;;;15.60;4.30;;;;;;;;;;5076516;28;20085;-71
2022/01/03 06:23:17;;;;;;;16.52;4.22;;;;;;;;;;5061564;28;20033;-68
2022/01/03 06:25:43;;;;;;;15.23;3.78;;;;;;;;;;5038283;28;20444;-66
2022/01/03 06:28:09;;;;;;;16.55;3.92;;;;;;;;;;5038110;28;20025;-69
2022/01/03 06:30:36;;;;;;;16.55;4.13;;;;;;;;;;5056118;28;20032;-68
2022/01/03 06:33:02;;;;;;;19.20;3.67;;;;;;;;;;5025414;28;20030;-67
2022/01/03 06:35:29;;;;;;;15.35;3.50;;;;;;;;;;5041463;28;20055;-66
2022/01/03 06:37:55;;;;;;;22.98;3.90;;;;;;;;;;5053704;28;20025;-67
2022/01/03 06:40:21;;;;;;;24.88;3.97;;;;;;;;;;5038975;28;20379;-70
2022/01/03 06:42:47;;;;;;;23.30;3.92;;;;;;;;;;5038439;28;20032;-69
2022/01/03 06:45:13;;;;;;;22.45;4.60;;;;;;;;;;5044814;28;20388;-70
2022/01/03 06:47:39;;;;;;;15.48;3.80;;;;;;;;;;5025646;28;20021;-70
2022/01/03 06:50:06;;;;;;;17.35;3.95;;;;;;;;;;5055680;28;20091;-66
2022/01/03 06:52:32;;;;;;;18.33;3.75;;;;;;;;;;5039949;28;20484;-65
2022/01/03 06:54:58;;;;;;;19.40;4.50;;;;;;;;;;5037515;28;20071;-65
2022/01/03 06:57:24;;;;;;;21.05;4.00;;;;;;;;;;5046862;28;20065;-64
2022/01/03 06:59:50;;;;;;;21.48;4.72;;;;;;;;;;5055419;28;20072;-65
2022/01/03 07:02:16;;;;;;;18.90;4.03;;;;;;;;;;5055022;28;20017;-65
2022/01/03 07:04:42;;;;;;;19.05;4.13;;;;;;;;;;5055283;28;20111;-65
2022/01/03 07:07:08;;;;;;;15.85;4.20;;;;;;;;;;5055121;28;20029;-71
2022/01/03 07:09:34;;;;;;;32.05;4.72;;;;;;;;;;5056289;28;20120;-72
2022/01/03 07:12:00;;;;;;;50.97;5.55;;;;;;;;;;5055914;28;20021;-76
2022/01/03 07:19:39;;;;;;;33.30;4.82;;;;;;;;;;5055737;28;20087;-71
2022/01/03 07:22:07;;;;;;;33.05;4.82;;;;;;;;;;5037436;28;20033;-65
2022/01/03 07:24:34;;;;;;;39.40;4.70;;;;;;;;;;5037044;28;20115;-67
2022/01/03 07:27:04;;;;;;;34.15;4.93;;;;;;;;;;5054925;28;20025;-65
2022/01/03 07:29:30;;;;;;;42.53;4.68;;;;;;;;;;5054639;28;20033;-68
2022/01/03 07:31:57;;;;;;;33.90;5.22;;;;;;;;;;5036836;28;20601;-69
2022/01/03 07:34:23;;;;;;;29.27;4.55;;;;;;;;;;5054856;28;20043;-70
2022/01/03 07:36:49;;;;;;;31.60;4.47;;;;;;;;;;5054695;28;20020;-70
2022/01/03 07:39:15;;;;;;;32.13;5.25;;;;;;;;;;5054741;28;20025;-69
2022/01/03 07:41:41;;;;;;;33.55;4.90;;;;;;;;;;5054638;28;20461;-69
2022/01/03 07:44:07;;;;;;;23.48;5.03;;;;;;;;;;5054524;28;20029;-69
2022/01/03 07:46:33;;;;;;;27.70;5.45;;;;;;;;;;5029097;28;20028;-70
2022/01/03 07:48:59;;;;;;;28.98;5.03;;;;;;;;;;5042743;28;20088;-68
2022/01/03 07:51:25;;;;;;;30.27;5.10;;;;;;;;;;5047823;28;20029;-70
2022/01/03 07:53:51;;;;;;;23.45;4.40;;;;;;;;;;5044666;28;20088;-66
2022/01/03 07:56:18;;;;;;;23.10;4.95;;;;;;;;;;5054273;28;20112;-66
2022/01/03 07:58:45;;;;;;;20.65;4.03;;;;;;;;;;5054816;28;20127;-67
2022/01/03 08:01:11;;;;;;;22.38;4.80;;;;;;;;;;5054213;28;20111;-66
2022/01/03 08:03:37;;;;;;;21.05;4.63;;;;;;;;;;5054303;28;20029;-68
2022/01/03 08:06:04;;;;;;;25.60;4.88;;;;;;;;;;5054040;28;20140;-66
2022/01/03 08:08:30;;;;;;;29.00;4.22;;;;;;;;;;5053920;28;20040;-67
2022/01/03 08:10:56;;;;;;;22.92;4.32;;;;;;;;;;5053216;28;20033;-68
2022/01/03 08:13:22;;;;;;;25.75;4.68;;;;;;;;;;5054485;28;20029;-67
2022/01/03 08:15:48;;;;;;;33.45;4.53;;;;;;;;;;5053700;28;20139;-66
2022/01/03 08:18:14;;;;;;;25.63;5.20;;;;;;;;;;5036333;28;20021;-69
2022/01/03 08:20:40;;;;;;;17.83;4.00;;;;;;;;;;5054224;28;20025;-66
2022/01/03 08:23:06;;;;;;;28.83;4.32;;;;;;;;;;5053718;28;20044;-65
2022/01/03 08:25:37;;;;;;;19.55;4.50;;;;;;;;;;5053739;28;20107;-67
2022/01/03 08:28:03;;;;;;;18.77;4.65;;;;;;;;;;5035769;28;20043;-66
2022/01/03 08:30:29;;;;;;;20.85;4.70;;;;;;;;;;5035611;28;20029;-65
2022/01/03 08:32:55;;;;;;;23.33;3.92;;;;;;;;;;5053631;28;20369;-65
2022/01/03 08:35:22;;;;;;;23.88;3.83;;;;;;;;;;5035787;28;20032;-65
2022/01/03 08:37:48;;;;;;;20.80;4.03;;;;;;;;;;5053528;28;20434;-67
2022/01/03 08:40:14;;;;;;;29.17;5.03;;;;;;;;;;5053575;28;20103;-65
2022/01/03 08:42:40;;;;;;;23.38;3.92;;;;;;;;;;5053410;28;20104;-68
2022/01/03 08:45:06;;;;;;;16.13;3.75;;;;;;;;;;5053110;28;20526;-65
2022/01/03 08:47:32;;;;;;;24.63;5.05;;;;;;;;;;5035414;28;20033;-67
2022/01/03 08:49:58;;;;;;;21.98;4.18;;;;;;;;;;5035135;28;20044;-66
2022/01/03 08:52:25;;;;;;;16.83;3.65;;;;;;;;;;5053069;28;20021;-66
2022/01/03 08:54:51;;;;;;;19.30;4.55;;;;;;;;;;5035316;28;20025;-65
2022/01/03 08:57:18;;;;;;;27.13;4.82;;;;;;;;;;5052980;28;20407;-66
2022/01/03 08:59:44;;;;;;;19.60;4.18;;;;;;;;;;5035404;28;20074;-65
2022/01/03 09:02:10;;;;;;;18.83;4.53;;;;;;;;;;5052971;28;20100;-65
2022/01/03 09:04:36;;;;;;;18.88;4.00;;;;;;;;;;5052771;28;20021;-67
2022/01/03 09:07:02;;;;;;;21.45;4.53;;;;;;;;;;5034897;28;20047;-69
2022/01/03 09:09:30;;;;;;;15.07;3.85;;;;;;;;;;5052821;28;20028;-66
2022/01/03 09:11:56;;;;;;;22.35;5.07;;;;;;;;;;5052913;28;20107;-67
2022/01/03 09:14:22;;;;;;;22.27;4.35;;;;;;;;;;5052884;28;20162;-69
2022/01/03 09:16:48;;;;;;;18.80;4.55;;;;;;;;;;5052754;28;20024;-69
2022/01/03 09:19:14;;;;;;;20.80;4.05;;;;;;;;;;5052717;28;20458;-65
2022/01/03 09:21:40;;;;;;;16.00;3.70;;;;;;;;;;5034781;28;20071;-67
2022/01/03 09:24:21;;;;;;;19.55;4.00;;;;;;;;;;5052859;28;20029;-65
2022/01/03 09:29:33;;;;;;;24.00;4.32;;;;;;;;;;5052701;28;20102;-69
2022/01/03 09:31:58;;;;;;;20.67;4.60;;;;;;;;;;5052423;28;20021;-66
2022/01/03 09:34:24;;;;;;;18.48;3.92;;;;;;;;;;5052393;28;20029;-66
2022/01/03 09:36:50;;;;;;;21.38;4.15;;;;;;;;;;5052266;28;20029;-65
2022/01/03 09:39:16;;;;;;;15.13;4.18;;;;;;;;;;5037100;28;20460;-65
2022/01/03 09:42:03;;;;;;;24.40;4.88;;;;;;;;;;5052615;28;20029;-65
2022/01/03 09:44:30;;;;;;;24.85;4.88;;;;;;;;;;5052370;28;20033;-69
2022/01/03 09:46:59;;;;;;;22.65;4.43;;;;;;;;;;5051571;28;20025;-65
2022/01/03 09:49:26;;;;;;;18.67;4.38;;;;;;;;;;5052485;28;20048;-65
2022/01/03 09:51:52;;;;;;;20.48;4.05;;;;;;;;;;5052128;28;20468;-66
2022/01/03 09:54:21;;;;;;;18.73;3.72;;;;;;;;;;5052422;28;20460;-66
2022/01/03 09:56:50;;;;;;;19.55;4.03;;;;;;;;;;5052273;28;20031;-65
2022/01/03 09:59:17;;;;;;;19.60;4.20;;;;;;;;;;5045852;28;20144;-65
2022/01/03 10:01:44;;;;;;;17.00;4.05;;;;;;;;;;5072553;28;20056;-68
2022/01/03 10:04:11;;;;;;;20.63;4.60;;;;;;;;;;5048882;28;20057;-65
2022/01/03 10:06:38;;;;;;;22.95;4.95;;;;;;;;;;5034725;28;20025;-65
2022/01/03 10:09:04;;;;;;;21.42;4.05;;;;;;;;;;5052211;28;20044;-66
2022/01/03 10:11:30;;;;;;;22.42;4.63;;;;;;;;;;5072458;28;20029;-66
2022/01/03 10:14:00;;;;;;;21.83;4.68;;;;;;;;;;5056412;28;20094;-70
2022/01/03 10:16:28;;;;;;;19.17;3.95;;;;;;;;;;5072291;28;20146;-65
2022/01/03 10:18:54;;;;;;;22.15;4.70;;;;;;;;;;5072350;28;20040;-69
2022/01/03 10:21:37;;;;;;;19.23;5.03;;;;;;;;;;5072274;28;20099;-67
2022/01/03 10:24:03;;;;;;;21.00;4.35;;;;;;;;;;5071450;28;20107;-66
2022/01/03 10:26:29;;;;;;;19.05;4.60;;;;;;;;;;5034322;28;20021;-67
2022/01/03 10:29:16;;;;;;;21.98;4.18;;;;;;;;;;5052171;28;20804;-66
2022/01/03 10:31:44;;;;;;;20.30;4.57;;;;;;;;;;5052081;28;20100;-66
2022/01/03 10:34:11;;;;;;;25.70;5.40;;;;;;;;;;5051931;28;20388;-66
2022/01/03 10:36:37;;;;;;;25.02;5.45;;;;;;;;;;5052182;28;20036;-68
2022/01/03 10:39:17;;;;;;;24.70;4.30;;;;;;;;;;5051545;28;20063;-65
2022/01/03 10:41:44;;;;;;;25.13;4.97;;;;;;;;;;5047426;28;20112;-66
2022/01/03 10:44:10;;;;;;;20.33;4.60;;;;;;;;;;5049432;28;20499;-65
2022/01/03 10:46:37;;;;;;;26.13;4.25;;;;;;;;;;5051506;28;20048;-68
2022/01/03 10:49:06;;;;;;;24.60;4.90;;;;;;;;;;5054112;28;20031;-66
2022/01/03 10:51:32;;;;;;;23.05;4.80;;;;;;;;;;5055645;28;20021;-66
2022/01/03 10:53:58;;;;;;;23.85;4.20;;;;;;;;;;5039412;28;20508;-66
2022/01/03 10:56:29;;;;;;;22.45;4.68;;;;;;;;;;5055624;28;20033;-67
2022/01/03 10:58:59;;;;;;;16.33;4.00;;;;;;;;;;5063968;28;20147;-65
2022/01/03 11:01:27;;;;;;;18.42;4.13;;;;;;;;;;5057344;28;20238;-69
2022/01/03 11:03:55;;;;;;;21.73;4.15;;;;;;;;;;5075241;28;20081;-65
2022/01/03 11:11:42;;;;;;;21.52;4.82;;;;;;;;;;5075235;28;20109;-65
2022/01/03 11:14:09;;;;;;;23.55;4.70;;;;;;;;;;5075236;28;20016;-66
2022/01/03 11:16:35;;;;;;;24.42;4.45;;;;;;;;;;5075066;28;20032;-67
2022/01/03 11:19:02;;;;;;;29.25;5.20;;;;;;;;;;5057016;28;20020;-66
2022/01/03 11:21:30;;;;;;;24.65;4.60;;;;;;;;;;5074736;28;20078;-66
2022/01/03 11:24:25;;;;;;;27.10;4.47;;;;;;;;;;5057087;28;20170;-69
2022/01/03 11:26:51;;;;;;;18.98;4.00;;;;;;;;;;5070437;28;20036;-66
2022/01/03 11:29:18;;;;;;;22.48;4.30;;;;;;;;;;5074762;28;20037;-65
2022/01/03 11:31:44;;;;;;;18.80;4.13;;;;;;;;;;5074823;28;20059;-65
2022/01/03 11:34:11;;;;;;;21.35;4.32;;;;;;;;;;5074497;28;20039;-65
2022/01/03 11:36:38;;;;;;;24.38;5.15;;;;;;;;;;5075052;28;20024;-70
2022/01/03 11:39:09;;;;;;;26.08;5.03;;;;;;;;;;5057136;28;20055;-65
2022/01/03 11:41:36;;;;;;;18.17;4.60;;;;;;;;;;5055248;28;20273;-67
2022/01/03 11:44:03;;;;;;;19.35;5.05;;;;;;;;;;5054692;28;20385;-65
2022/01/03 11:46:30;;;;;;;22.17;4.65;;;;;;;;;;5036588;28;20044;-68
2022/01/03 11:48:56;;;;;;;24.92;4.32;;;;;;;;;;5054396;28;20025;-66
2022/01/03 11:51:23;;;;;;;23.67;4.70;;;;;;;;;;5054450;28;20029;-66
2022/01/03 11:53:50;;;;;;;20.50;4.25;;;;;;;;;;5036615;28;20459;-65
2022/01/03 11:56:17;;;;;;;24.70;4.80;;;;;;;;;;5054302;28;20100;-65
2022/01/03 12:03:59;;;;;;;23.58;4.40;;;;;;;;;;5053596;28;20380;-69
2022/01/03 12:06:30;;;;;;;27.38;5.05;;;;;;;;;;5036036;28;20380;-66
2022/01/03 12:08:58;;;;;;;22.33;4.37;;;;;;;;;;5054069;28;20430;-66
2022/01/03 12:11:29;;;;;;;22.65;4.88;;;;;;;;;;5036079;28;20037;-65
2022/01/03 12:13:56;;;;;;;29.27;6.07;;;;;;;;;;5036089;28;20389;-66
2022/01/03 12:16:41;;;;;;;24.38;4.85;;;;;;;;;;5053887;28;20096;-65
2022/01/03 12:19:08;;;;;;;25.40;4.97;;;;;;;;;;5053758;28;20036;-66
2022/01/03 12:21:47;;;;;;;21.75;4.38;;;;;;;;;;5035838;28;20021;-67
2022/01/03 12:24:29;;;;;;;22.00;5.00;;;;;;;;;;5053959;28;20498;-66
2022/01/03 12:27:10;;;;;;;21.73;4.90;;;;;;;;;;5053583;28;20032;-67
2022/01/03 12:29:55;;;;;;;20.85;4.47;;;;;;;;;;5053541;28;20419;-68
2022/01/03 12:32:28;;;;;;;21.23;4.63;;;;;;;;;;5053323;28;20079;-66
2022/01/03 12:35:13;;;;;;;21.55;4.68;;;;;;;;;;5053467;28;20049;-65
2022/01/03 12:37:47;;;;;;;20.10;4.00;;;;;;;;;;5029962;28;20091;-66
2022/01/03 12:40:14;;;;;;;18.83;4.13;;;;;;;;;;5051470;28;20353;-66
2022/01/03 12:42:48;;;;;;;28.02;5.03;;;;;;;;;;5053597;28;20035;-66
2022/01/03 12:45:15;;;;;;;20.35;4.20;;;;;;;;;;5039560;28;20112;-66
2022/01/03 12:47:41;;;;;;;17.75;4.20;;;;;;;;;;5053054;28;20374;-66
2022/01/03 12:50:21;;;;;;;24.15;4.43;;;;;;;;;;5052696;28;20040;-66
2022/01/03 12:52:47;;;;;;;20.35;5.00;;;;;;;;;;5046684;28;20017;-65
2022/01/03 12:55:33;;;;;;;20.02;4.03;;;;;;;;;;5037214;28;20056;-65
2022/01/03 12:57:59;;;;;;;18.50;3.83;;;;;;;;;;5054318;28;20048;-65
2022/01/03 13:00:45;;;;;;;21.67;4.25;;;;;;;;;;5053988;28;20036;-65
2022/01/03 13:03:24;;;;;;;17.13;3.92;;;;;;;;;;5053340;28;20056;-68
2022/01/03 13:06:12;;;;;;;19.67;3.80;;;;;;;;;;5035609;28;20365;-65
2022/01/03 13:08:40;;;;;;;16.25;3.28;;;;;;;;;;5053415;28;20025;-69
2022/01/03 13:11:08;;;;;;;18.17;4.20;;;;;;;;;;5034975;28;20079;-66
2022/01/03 13:13:34;;;;;;;14.25;3.47;;;;;;;;;;5053277;28;20028;-69
2022/01/03 13:16:16;;;;;;;17.02;3.75;;;;;;;;;;5053636;28;20043;-67
2022/01/03 13:18:44;;;;;;;17.05;3.70;;;;;;;;;;5035260;28;20430;-65
2022/01/03 13:21:13;;;;;;;20.98;4.30;;;;;;;;;;5052766;28;20025;-65
2022/01/03 13:23:39;;;;;;;19.48;3.97;;;;;;;;;;5053032;28;20055;-66
2022/01/03 13:26:05;;;;;;;25.73;3.70;;;;;;;;;;5036324;28;20024;-66
2022/01/03 13:28:31;;;;;;;14.15;3.40;;;;;;;;;;5052883;28;20503;-66
2022/01/03 13:31:01;;;;;;;14.13;3.20;;;;;;;;;;5053415;28;20166;-66
2022/01/03 13:33:27;;;;;;;16.85;3.63;;;;;;;;;;5034011;28;20029;-66
2022/01/03 13:36:03;;;;;;;12.48;2.70;;;;;;;;;;5052779;28;20108;-66
2022/01/03 13:38:30;;;;;;;13.00;3.17;;;;;;;;;;5052733;28;20020;-66
2022/01/03 13:41:10;;;;;;;14.77;2.80;;;;;;;;;;5052676;28;20061;-69
2022/01/03 13:43:41;;;;;;;17.15;3.17;;;;;;;;;;5050957;28;20777;-70
2022/01/03 13:51:19;;;;;;;11.25;2.72;;;;;;;;;;5052917;28;20107;-66
2022/01/03 13:53:49;;;;;;;19.02;3.47;;;;;;;;;;5052694;28;20017;-66
2022/01/03 13:56:15;;;;;;;10.05;2.67;;;;;;;;;;5034958;28;20033;-65
2022/01/03 13:58:43;;;;;;;13.02;2.83;;;;;;;;;;5045983;28;20506;-68
2022/01/03 14:01:10;;;;;;;13.35;2.88;;;;;;;;;;5072659;28;20025;-66
2022/01/03 14:03:36;;;;;;;12.00;2.47;;;;;;;;;;5072404;28;20423;-70
2022/01/03 14:06:19;;;;;;;12.90;3.03;;;;;;;;;;5054635;28;20458;-65
2022/01/03 14:08:49;;;;;;;13.48;2.63;;;;;;;;;;5072954;28;20032;-67
2022/01/03 14:11:15;;;;;;;12.27;2.78;;;;;;;;;;5056684;28;20484;-65
2022/01/03 14:13:42;;;;;;;10.02;2.40;;;;;;;;;;5047193;28;20031;-68
2022/01/03 14:16:09;;;;;;;10.57;2.50;;;;;;;;;;5052521;28;20025;-66
2022/01/03 14:18:35;;;;;;;12.05;3.05;;;;;;;;;;5052554;28;20528;-69
2022/01/03 14:21:05;;;;;;;11.00;2.60;;;;;;;;;;5052430;28;20111;-69
2022/01/03 14:23:31;;;;;;;10.85;2.53;;;;;;;;;;5055713;28;20037;-67
2022/01/03 14:26:10;;;;;;;12.95;2.92;;;;;;;;;;5056332;28;20036;-67
2022/01/03 14:28:39;;;;;;;14.40;2.67;;;;;;;;;;5037603;28;20410;-67
2022/01/03 14:31:05;;;;;;;7.50;2.00;;;;;;;;;;5056191;28;20063;-65
2022/01/03 14:33:32;;;;;;;12.75;2.47;;;;;;;;;;5056317;28;20388;-64
2022/01/03 14:35:58;;;;;;;8.88;2.13;;;;;;;;;;5056096;28;20361;-64
2022/01/03 14:38:28;;;;;;;8.95;2.35;;;;;;;;;;5056311;28;20369;-66
2022/01/03 14:40:54;;;;;;;10.68;2.45;;;;;;;;;;5056060;28;20021;-66
2022/01/03 14:43:24;;;;;;;9.50;2.05;;;;;;;;;;5055938;28;20071;-65
2022/01/03 14:45:52;;;;;;;10.45;2.20;;;;;;;;;;5054937;28;20024;-66
2022/01/03 14:48:19;;;;;;;9.65;2.28;;;;;;;;;;5056092;28;20395;-65
2022/01/03 14:50:45;;;;;;;7.68;2.08;;;;;;;;;;5054500;28;20040;-65
2022/01/03 14:53:11;;;;;;;12.32;2.35;;;;;;;;;;5054624;28;20026;-65
2022/01/03 14:55:41;;;;;;;9.07;2.03;;;;;;;;;;5055754;28;20499;-66
2022/01/03 14:58:08;;;;;;;11.02;2.47;;;;;;;;;;5067961;28;20483;-66
2022/01/03 15:00:34;;;;;;;12.27;2.33;;;;;;;;;;5055492;28;20063;-65
2022/01/03 15:03:00;;;;;;;6.70;1.98;;;;;;;;;;5055680;28;20534;-66
2022/01/03 15:05:26;;;;;;;9.43;2.28;;;;;;;;;;5055643;28;20488;-66